sensor_id;sensor_type;location;lat;lon;timestamp;temperature;humidity
15947;DHT22;8072;52.554;7.966;2024-02-26T00:01:42;3.80;99.90
15947;DHT22;8072;52.554;7.966;2024-02-26T00:04:10;3.70;99.90
15947;DHT22;8072;52.554;7.966;2024-02-26T00:06:36;3.70;99.90
15947;DHT22;8072;52.554;7.966;2024-02-26T00:09:02;3.70;99.90
15947;DHT22;8072;52.554;7.966;2024-02-26T00:11:31;3.60;99.90
15947;DHT22;8072;52.554;7.966;2024-02-26T00:13:57;3.60;99.90
15947;DHT22;8072;52.554;7.966;2024-02-26T00:16:23;3.60;99.90
15947;DHT22;8072;52.554;7.966;2024-02-26T00:18:49;3.60;99.90
15947;DHT22;8072;52.554;7.966;2024-02-26T00:21:15;3.60;99.90
15947;DHT22;8072;52.554;7.966;2024-02-26T00:23:41;3.60;99.90
15947;DHT22;8072;52.554;7.966;2024-02-26T00:26:06;3.60;99.90
15947;DHT22;8072;52.554;7.966;2024-02-26T00:28:33;3.60;99.90
15947;DHT22;8072;52.554;7.966;2024-02-26T00:30:59;3.60;99.90
15947;DHT22;8072;52.554;7.966;2024-02-26T00:33:25;3.60;99.90
15947;DHT22;8072;52.554;7.966;2024-02-26T00:35:50;3.60;99.90
15947;DHT22;8072;52.554;7.966;2024-02-26T00:38:16;3.60;99.90
15947;DHT22;8072;52.554;7.966;2024-02-26T00:40:42;3.60;99.90
15947;DHT22;8072;52.554;7.966;2024-02-26T00:43:08;3.50;99.90
15947;DHT22;8072;52.554;7.966;2024-02-26T00:45:33;3.50;99.90
15947;DHT22;8072;52.554;7.966;2024-02-26T00:47:59;3.50;99.90
15947;DHT22;8072;52.554;7.966;2024-02-26T00:50:36;3.50;99.90
15947;DHT22;8072;52.554;7.966;2024-02-26T00:53:02;3.50;99.90
15947;DHT22;8072;52.554;7.966;2024-02-26T00:55:28;3.50;99.90
15947;DHT22;8072;52.554;7.966;2024-02-26T00:57:54;3.50;99.90
15947;DHT22;8072;52.554;7.966;2024-02-26T01:00:20;3.50;99.90
15947;DHT22;8072;52.554;7.966;2024-02-26T01:02:46;3.50;99.90
15947;DHT22;8072;52.554;7.966;2024-02-26T01:05:13;3.50;99.90
15947;DHT22;8072;52.554;7.966;2024-02-26T01:07:39;3.50;99.90
15947;DHT22;8072;52.554;7.966;2024-02-26T01:10:06;3.50;99.90
15947;DHT22;8072;52.554;7.966;2024-02-26T01:12:33;3.50;99.90
15947;DHT22;8072;52.554;7.966;2024-02-26T01:15:00;3.50;99.90
15947;DHT22;8072;52.554;7.966;2024-02-26T01:17:26;3.50;99.90
15947;DHT22;8072;52.554;7.966;2024-02-26T01:19:52;3.50;99.90
15947;DHT22;8072;52.554;7.966;2024-02-26T01:22:19;3.50;99.90
15947;DHT22;8072;52.554;7.966;2024-02-26T01:24:45;3.50;99.90
15947;DHT22;8072;52.554;7.966;2024-02-26T01:27:11;3.50;99.90
15947;DHT22;8072;52.554;7.966;2024-02-26T01:29:36;3.50;99.90
15947;DHT22;8072;52.554;7.966;2024-02-26T01:32:02;3.50;99.90
15947;DHT22;8072;52.554;7.966;2024-02-26T01:34:30;3.50;99.90
15947;DHT22;8072;52.554;7.966;2024-02-26T01:36:56;3.50;99.90
15947;DHT22;8072;52.554;7.966;2024-02-26T01:39:21;3.50;99.90
15947;DHT22;8072;52.554;7.966;2024-02-26T01:41:47;3.40;99.90
15947;DHT22;8072;52.554;7.966;2024-02-26T01:44:13;3.40;99.90
15947;DHT22;8072;52.554;7.966;2024-02-26T01:46:39;3.40;99.90
15947;DHT22;8072;52.554;7.966;2024-02-26T01:49:06;3.40;99.90
15947;DHT22;8072;52.554;7.966;2024-02-26T01:51:33;3.40;99.90
15947;DHT22;8072;52.554;7.966;2024-02-26T01:54:01;3.40;99.90
15947;DHT22;8072;52.554;7.966;2024-02-26T01:56:28;3.40;99.90
15947;DHT22;8072;52.554;7.966;2024-02-26T01:58:57;3.40;99.90
15947;DHT22;8072;52.554;7.966;2024-02-26T02:01:29;3.40;99.90
15947;DHT22;8072;52.554;7.966;2024-02-26T02:03:57;3.40;99.90
15947;DHT22;8072;52.554;7.966;2024-02-26T02:06:23;3.40;99.90
15947;DHT22;8072;52.554;7.966;2024-02-26T02:08:49;3.30;99.90
15947;DHT22;8072;52.554;7.966;2024-02-26T02:11:16;3.30;99.90
15947;DHT22;8072;52.554;7.966;2024-02-26T02:13:43;3.30;99.90
15947;DHT22;8072;52.554;7.966;2024-02-26T02:16:09;3.30;99.90
15947;DHT22;8072;52.554;7.966;2024-02-26T02:18:34;3.30;99.90
15947;DHT22;8072;52.554;7.966;2024-02-26T02:21:01;3.20;99.90
15947;DHT22;8072;52.554;7.966;2024-02-26T02:23:27;3.20;99.90
15947;DHT22;8072;52.554;7.966;2024-02-26T02:25:53;3.20;99.90
15947;DHT22;8072;52.554;7.966;2024-02-26T02:28:21;3.20;99.90
15947;DHT22;8072;52.554;7.966;2024-02-26T02:30:47;3.20;99.90
15947;DHT22;8072;52.554;7.966;2024-02-26T02:33:14;3.20;99.90
15947;DHT22;8072;52.554;7.966;2024-02-26T02:35:41;3.20;99.90
15947;DHT22;8072;52.554;7.966;2024-02-26T02:38:06;3.20;99.90
15947;DHT22;8072;52.554;7.966;2024-02-26T02:40:32;3.20;99.90
15947;DHT22;8072;52.554;7.966;2024-02-26T02:42:58;3.20;99.90
15947;DHT22;8072;52.554;7.966;2024-02-26T02:45:25;3.10;99.90
15947;DHT22;8072;52.554;7.966;2024-02-26T02:47:51;3.20;99.90
15947;DHT22;8072;52.554;7.966;2024-02-26T02:50:17;3.20;99.90
15947;DHT22;8072;52.554;7.966;2024-02-26T02:52:42;3.20;99.90
15947;DHT22;8072;52.554;7.966;2024-02-26T02:55:08;3.10;99.90
15947;DHT22;8072;52.554;7.966;2024-02-26T02:57:34;3.10;99.90
15947;DHT22;8072;52.554;7.966;2024-02-26T03:00:01;3.10;99.90
15947;DHT22;8072;52.554;7.966;2024-02-26T03:02:29;3.10;99.90
15947;DHT22;8072;52.554;7.966;2024-02-26T03:04:55;3.10;99.90
15947;DHT22;8072;52.554;7.966;2024-02-26T03:07:21;3.10;99.90
15947;DHT22;8072;52.554;7.966;2024-02-26T03:09:46;3.10;99.90
15947;DHT22;8072;52.554;7.966;2024-02-26T03:12:12;3.10;99.90
15947;DHT22;8072;52.554;7.966;2024-02-26T03:14:38;3.10;99.90
15947;DHT22;8072;52.554;7.966;2024-02-26T03:17:04;3.10;99.90
15947;DHT22;8072;52.554;7.966;2024-02-26T03:19:29;3.20;99.90
15947;DHT22;8072;52.554;7.966;2024-02-26T03:21:55;3.20;99.90
15947;DHT22;8072;52.554;7.966;2024-02-26T03:24:21;3.10;99.90
15947;DHT22;8072;52.554;7.966;2024-02-26T03:26:46;3.20;99.90
15947;DHT22;8072;52.554;7.966;2024-02-26T03:29:12;3.20;99.90
15947;DHT22;8072;52.554;7.966;2024-02-26T03:31:38;3.20;99.90
15947;DHT22;8072;52.554;7.966;2024-02-26T03:34:04;3.20;99.90
15947;DHT22;8072;52.554;7.966;2024-02-26T03:36:29;3.20;99.90
15947;DHT22;8072;52.554;7.966;2024-02-26T03:38:56;3.20;99.90
15947;DHT22;8072;52.554;7.966;2024-02-26T03:41:21;3.20;99.90
15947;DHT22;8072;52.554;7.966;2024-02-26T03:43:47;3.20;99.90
15947;DHT22;8072;52.554;7.966;2024-02-26T03:46:13;3.20;99.90
15947;DHT22;8072;52.554;7.966;2024-02-26T03:48:42;3.20;99.90
15947;DHT22;8072;52.554;7.966;2024-02-26T03:51:09;3.20;99.90
15947;DHT22;8072;52.554;7.966;2024-02-26T03:53:36;3.20;99.90
15947;DHT22;8072;52.554;7.966;2024-02-26T03:56:04;3.20;99.90
15947;DHT22;8072;52.554;7.966;2024-02-26T03:58:30;3.30;99.90
15947;DHT22;8072;52.554;7.966;2024-02-26T04:00:59;3.30;99.90
15947;DHT22;8072;52.554;7.966;2024-02-26T04:03:25;3.30;99.90
15947;DHT22;8072;52.554;7.966;2024-02-26T04:05:51;3.30;99.90
15947;DHT22;8072;52.554;7.966;2024-02-26T04:08:17;3.30;99.90
15947;DHT22;8072;52.554;7.966;2024-02-26T04:10:43;3.30;99.90
15947;DHT22;8072;52.554;7.966;2024-02-26T04:13:08;3.30;99.90
15947;DHT22;8072;52.554;7.966;2024-02-26T04:15:34;3.40;99.90
15947;DHT22;8072;52.554;7.966;2024-02-26T04:18:00;3.40;99.90
15947;DHT22;8072;52.554;7.966;2024-02-26T04:20:26;3.40;99.90
15947;DHT22;8072;52.554;7.966;2024-02-26T04:22:52;3.30;99.90
15947;DHT22;8072;52.554;7.966;2024-02-26T04:25:18;3.40;99.90
15947;DHT22;8072;52.554;7.966;2024-02-26T04:27:44;3.40;99.90
15947;DHT22;8072;52.554;7.966;2024-02-26T04:30:10;3.40;99.90
15947;DHT22;8072;52.554;7.966;2024-02-26T04:32:36;3.40;99.90
15947;DHT22;8072;52.554;7.966;2024-02-26T04:35:02;3.30;99.90
15947;DHT22;8072;52.554;7.966;2024-02-26T04:37:28;3.40;99.90
15947;DHT22;8072;52.554;7.966;2024-02-26T04:40:00;3.40;99.90
15947;DHT22;8072;52.554;7.966;2024-02-26T04:42:28;3.40;99.90
15947;DHT22;8072;52.554;7.966;2024-02-26T04:44:54;3.40;99.90
15947;DHT22;8072;52.554;7.966;2024-02-26T04:47:20;3.40;99.90
15947;DHT22;8072;52.554;7.966;2024-02-26T04:49:49;3.40;99.90
15947;DHT22;8072;52.554;7.966;2024-02-26T04:52:17;3.40;99.90
15947;DHT22;8072;52.554;7.966;2024-02-26T04:54:43;3.40;99.90
15947;DHT22;8072;52.554;7.966;2024-02-26T04:57:08;3.50;99.90
15947;DHT22;8072;52.554;7.966;2024-02-26T04:59:34;3.50;99.90
15947;DHT22;8072;52.554;7.966;2024-02-26T05:02:00;3.50;99.90
15947;DHT22;8072;52.554;7.966;2024-02-26T05:04:26;3.50;99.90
15947;DHT22;8072;52.554;7.966;2024-02-26T05:06:51;3.50;99.90
15947;DHT22;8072;52.554;7.966;2024-02-26T05:09:19;3.50;99.90
15947;DHT22;8072;52.554;7.966;2024-02-26T05:11:45;3.50;99.90
15947;DHT22;8072;52.554;7.966;2024-02-26T05:14:11;3.50;99.90
15947;DHT22;8072;52.554;7.966;2024-02-26T05:16:37;3.50;99.90
15947;DHT22;8072;52.554;7.966;2024-02-26T05:19:03;3.50;99.90
15947;DHT22;8072;52.554;7.966;2024-02-26T05:21:28;3.60;99.90
15947;DHT22;8072;52.554;7.966;2024-02-26T05:23:54;3.60;99.90
15947;DHT22;8072;52.554;7.966;2024-02-26T05:26:21;3.60;99.90
15947;DHT22;8072;52.554;7.966;2024-02-26T05:28:48;3.60;99.90
15947;DHT22;8072;52.554;7.966;2024-02-26T05:31:14;3.60;99.90
15947;DHT22;8072;52.554;7.966;2024-02-26T05:33:39;3.70;99.90
15947;DHT22;8072;52.554;7.966;2024-02-26T05:36:06;3.70;99.90
15947;DHT22;8072;52.554;7.966;2024-02-26T05:38:32;3.70;99.90
15947;DHT22;8072;52.554;7.966;2024-02-26T05:40:59;3.70;99.90
15947;DHT22;8072;52.554;7.966;2024-02-26T05:43:28;3.70;99.90
15947;DHT22;8072;52.554;7.966;2024-02-26T05:45:53;3.70;99.90
15947;DHT22;8072;52.554;7.966;2024-02-26T05:48:19;3.70;99.90
15947;DHT22;8072;52.554;7.966;2024-02-26T05:50:46;3.70;99.90
15947;DHT22;8072;52.554;7.966;2024-02-26T05:53:12;3.70;99.90
15947;DHT22;8072;52.554;7.966;2024-02-26T05:55:37;3.80;99.90
15947;DHT22;8072;52.554;7.966;2024-02-26T05:58:03;3.70;99.90
15947;DHT22;8072;52.554;7.966;2024-02-26T06:00:29;3.80;99.90
15947;DHT22;8072;52.554;7.966;2024-02-26T06:02:55;3.80;99.90
15947;DHT22;8072;52.554;7.966;2024-02-26T06:05:21;3.80;99.90
15947;DHT22;8072;52.554;7.966;2024-02-26T06:07:47;3.80;99.90
15947;DHT22;8072;52.554;7.966;2024-02-26T06:10:13;3.80;99.90
15947;DHT22;8072;52.554;7.966;2024-02-26T06:12:41;3.80;99.90
15947;DHT22;8072;52.554;7.966;2024-02-26T06:15:08;3.80;99.90
15947;DHT22;8072;52.554;7.966;2024-02-26T06:17:34;3.80;99.90
15947;DHT22;8072;52.554;7.966;2024-02-26T06:20:00;3.90;99.90
15947;DHT22;8072;52.554;7.966;2024-02-26T06:22:27;3.80;99.90
15947;DHT22;8072;52.554;7.966;2024-02-26T06:24:52;3.90;99.90
15947;DHT22;8072;52.554;7.966;2024-02-26T06:27:18;3.90;99.90
15947;DHT22;8072;52.554;7.966;2024-02-26T06:29:44;3.90;99.90
15947;DHT22;8072;52.554;7.966;2024-02-26T06:32:10;3.90;99.90
15947;DHT22;8072;52.554;7.966;2024-02-26T06:34:36;3.90;99.90
15947;DHT22;8072;52.554;7.966;2024-02-26T06:37:03;3.90;99.90
15947;DHT22;8072;52.554;7.966;2024-02-26T06:39:29;4.00;99.90
15947;DHT22;8072;52.554;7.966;2024-02-26T06:41:55;4.00;99.90
15947;DHT22;8072;52.554;7.966;2024-02-26T06:44:26;4.00;99.90
15947;DHT22;8072;52.554;7.966;2024-02-26T06:46:57;4.00;99.90
15947;DHT22;8072;52.554;7.966;2024-02-26T06:49:24;4.00;99.90
15947;DHT22;8072;52.554;7.966;2024-02-26T06:51:49;4.10;99.90
15947;DHT22;8072;52.554;7.966;2024-02-26T06:54:15;4.10;99.90
15947;DHT22;8072;52.554;7.966;2024-02-26T06:56:41;4.10;99.90
15947;DHT22;8072;52.554;7.966;2024-02-26T06:59:06;4.10;99.90
15947;DHT22;8072;52.554;7.966;2024-02-26T07:01:32;4.10;99.90
15947;DHT22;8072;52.554;7.966;2024-02-26T07:03:58;4.10;99.90
15947;DHT22;8072;52.554;7.966;2024-02-26T07:06:23;4.10;99.90
15947;DHT22;8072;52.554;7.966;2024-02-26T07:08:49;4.10;99.90
15947;DHT22;8072;52.554;7.966;2024-02-26T07:11:15;4.10;99.90
15947;DHT22;8072;52.554;7.966;2024-02-26T07:13:40;4.10;99.90
15947;DHT22;8072;52.554;7.966;2024-02-26T07:16:09;4.20;99.90
15947;DHT22;8072;52.554;7.966;2024-02-26T07:18:34;4.10;99.90
15947;DHT22;8072;52.554;7.966;2024-02-26T07:21:03;4.20;99.90
15947;DHT22;8072;52.554;7.966;2024-02-26T07:23:29;4.20;99.90
15947;DHT22;8072;52.554;7.966;2024-02-26T07:25:55;4.20;99.90
15947;DHT22;8072;52.554;7.966;2024-02-26T07:28:21;4.20;99.90
15947;DHT22;8072;52.554;7.966;2024-02-26T07:30:46;4.20;99.90
15947;DHT22;8072;52.554;7.966;2024-02-26T07:33:12;4.20;99.90
15947;DHT22;8072;52.554;7.966;2024-02-26T07:35:38;4.20;99.90
15947;DHT22;8072;52.554;7.966;2024-02-26T07:38:05;4.30;99.90
15947;DHT22;8072;52.554;7.966;2024-02-26T07:40:31;4.30;99.90
15947;DHT22;8072;52.554;7.966;2024-02-26T07:42:57;4.30;99.90
15947;DHT22;8072;52.554;7.966;2024-02-26T07:45:23;4.30;99.90
15947;DHT22;8072;52.554;7.966;2024-02-26T07:47:48;4.30;99.90
15947;DHT22;8072;52.554;7.966;2024-02-26T07:50:16;4.40;99.90
15947;DHT22;8072;52.554;7.966;2024-02-26T07:52:42;4.40;99.90
15947;DHT22;8072;52.554;7.966;2024-02-26T07:55:09;4.40;99.90
15947;DHT22;8072;52.554;7.966;2024-02-26T07:57:35;4.50;99.90
15947;DHT22;8072;52.554;7.966;2024-02-26T08:00:04;4.40;99.90
15947;DHT22;8072;52.554;7.966;2024-02-26T08:02:33;4.40;99.90
15947;DHT22;8072;52.554;7.966;2024-02-26T08:04:59;4.50;99.90
15947;DHT22;8072;52.554;7.966;2024-02-26T08:07:25;4.50;99.90
15947;DHT22;8072;52.554;7.966;2024-02-26T08:09:51;4.50;99.90
15947;DHT22;8072;52.554;7.966;2024-02-26T08:12:16;4.60;99.90
15947;DHT22;8072;52.554;7.966;2024-02-26T08:14:42;4.60;99.90
15947;DHT22;8072;52.554;7.966;2024-02-26T08:17:09;4.60;99.90
15947;DHT22;8072;52.554;7.966;2024-02-26T08:19:35;4.70;99.90
15947;DHT22;8072;52.554;7.966;2024-02-26T08:22:01;4.70;99.90
15947;DHT22;8072;52.554;7.966;2024-02-26T08:24:27;4.70;99.90
15947;DHT22;8072;52.554;7.966;2024-02-26T08:26:53;4.80;99.90
15947;DHT22;8072;52.554;7.966;2024-02-26T08:29:19;4.80;99.90
15947;DHT22;8072;52.554;7.966;2024-02-26T08:31:45;4.90;99.90
15947;DHT22;8072;52.554;7.966;2024-02-26T08:34:11;4.90;99.90
15947;DHT22;8072;52.554;7.966;2024-02-26T08:36:37;4.90;99.90
15947;DHT22;8072;52.554;7.966;2024-02-26T08:39:03;4.90;99.90
15947;DHT22;8072;52.554;7.966;2024-02-26T08:41:30;5.00;99.90
15947;DHT22;8072;52.554;7.966;2024-02-26T08:43:56;5.00;99.90
15947;DHT22;8072;52.554;7.966;2024-02-26T08:46:23;5.00;99.90
15947;DHT22;8072;52.554;7.966;2024-02-26T08:48:49;5.00;99.90
15947;DHT22;8072;52.554;7.966;2024-02-26T08:51:15;5.00;99.90
15947;DHT22;8072;52.554;7.966;2024-02-26T08:53:40;5.10;99.90
15947;DHT22;8072;52.554;7.966;2024-02-26T08:56:06;5.10;99.90
15947;DHT22;8072;52.554;7.966;2024-02-26T08:58:32;5.10;99.90
15947;DHT22;8072;52.554;7.966;2024-02-26T09:00:58;5.20;99.90
15947;DHT22;8072;52.554;7.966;2024-02-26T09:03:23;5.20;99.90
15947;DHT22;8072;52.554;7.966;2024-02-26T09:05:50;5.20;99.90
15947;DHT22;8072;52.554;7.966;2024-02-26T09:08:16;5.30;99.90
15947;DHT22;8072;52.554;7.966;2024-02-26T09:10:42;5.30;99.90
15947;DHT22;8072;52.554;7.966;2024-02-26T09:13:08;5.30;99.90
15947;DHT22;8072;52.554;7.966;2024-02-26T09:15:33;5.40;99.90
15947;DHT22;8072;52.554;7.966;2024-02-26T09:17:59;5.40;99.90
15947;DHT22;8072;52.554;7.966;2024-02-26T09:20:25;5.50;99.90
15947;DHT22;8072;52.554;7.966;2024-02-26T09:22:51;5.50;99.90
15947;DHT22;8072;52.554;7.966;2024-02-26T09:25:17;5.50;99.90
15947;DHT22;8072;52.554;7.966;2024-02-26T09:27:46;5.50;99.90
15947;DHT22;8072;52.554;7.966;2024-02-26T09:30:13;5.60;99.90
15947;DHT22;8072;52.554;7.966;2024-02-26T09:32:39;5.60;99.90
15947;DHT22;8072;52.554;7.966;2024-02-26T09:35:08;5.60;99.90
15947;DHT22;8072;52.554;7.966;2024-02-26T09:37:34;5.60;99.90
15947;DHT22;8072;52.554;7.966;2024-02-26T09:40:03;5.60;99.90
15947;DHT22;8072;52.554;7.966;2024-02-26T09:42:31;5.60;99.90
15947;DHT22;8072;52.554;7.966;2024-02-26T09:45:00;5.60;99.90
15947;DHT22;8072;52.554;7.966;2024-02-26T09:47:31;5.70;99.90
15947;DHT22;8072;52.554;7.966;2024-02-26T09:49:59;5.70;99.90
15947;DHT22;8072;52.554;7.966;2024-02-26T09:52:28;5.70;99.90
15947;DHT22;8072;52.554;7.966;2024-02-26T09:54:56;5.70;99.90
15947;DHT22;8072;52.554;7.966;2024-02-26T09:57:22;5.80;99.90
15947;DHT22;8072;52.554;7.966;2024-02-26T09:59:51;5.80;99.90
15947;DHT22;8072;52.554;7.966;2024-02-26T10:02:19;5.90;99.90
15947;DHT22;8072;52.554;7.966;2024-02-26T10:04:47;5.90;99.90
15947;DHT22;8072;52.554;7.966;2024-02-26T10:07:13;5.90;99.90
15947;DHT22;8072;52.554;7.966;2024-02-26T10:09:40;5.90;99.90
15947;DHT22;8072;52.554;7.966;2024-02-26T10:12:11;6.00;99.90
15947;DHT22;8072;52.554;7.966;2024-02-26T10:14:37;6.00;99.90
15947;DHT22;8072;52.554;7.966;2024-02-26T10:17:06;6.10;99.90
15947;DHT22;8072;52.554;7.966;2024-02-26T10:19:32;6.10;99.90
15947;DHT22;8072;52.554;7.966;2024-02-26T10:21:59;6.10;99.90
15947;DHT22;8072;52.554;7.966;2024-02-26T10:24:26;6.20;99.90
15947;DHT22;8072;52.554;7.966;2024-02-26T10:26:52;6.20;99.90
15947;DHT22;8072;52.554;7.966;2024-02-26T10:29:19;6.20;99.90
15947;DHT22;8072;52.554;7.966;2024-02-26T10:31:45;6.20;99.90
15947;DHT22;8072;52.554;7.966;2024-02-26T10:34:11;6.30;99.90
15947;DHT22;8072;52.554;7.966;2024-02-26T10:36:37;6.30;99.90
15947;DHT22;8072;52.554;7.966;2024-02-26T10:39:06;6.30;99.90
15947;DHT22;8072;52.554;7.966;2024-02-26T10:41:35;6.40;99.90
15947;DHT22;8072;52.554;7.966;2024-02-26T10:44:01;6.40;99.90
15947;DHT22;8072;52.554;7.966;2024-02-26T10:46:28;6.40;99.90
15947;DHT22;8072;52.554;7.966;2024-02-26T10:48:54;6.40;99.90
15947;DHT22;8072;52.554;7.966;2024-02-26T10:51:26;6.40;99.90
15947;DHT22;8072;52.554;7.966;2024-02-26T10:53:55;6.50;99.90
15947;DHT22;8072;52.554;7.966;2024-02-26T10:56:25;6.50;99.90
15947;DHT22;8072;52.554;7.966;2024-02-26T10:58:53;6.50;99.90
15947;DHT22;8072;52.554;7.966;2024-02-26T11:01:21;6.60;99.90
15947;DHT22;8072;52.554;7.966;2024-02-26T11:03:52;6.60;99.90
15947;DHT22;8072;52.554;7.966;2024-02-26T11:06:19;6.60;99.90
15947;DHT22;8072;52.554;7.966;2024-02-26T11:08:50;6.60;99.90
15947;DHT22;8072;52.554;7.966;2024-02-26T11:11:17;6.60;99.90
15947;DHT22;8072;52.554;7.966;2024-02-26T11:13:47;6.60;99.90
15947;DHT22;8072;52.554;7.966;2024-02-26T11:16:21;6.70;99.90
15947;DHT22;8072;52.554;7.966;2024-02-26T11:18:48;6.70;99.90
15947;DHT22;8072;52.554;7.966;2024-02-26T11:21:18;6.80;99.90
15947;DHT22;8072;52.554;7.966;2024-02-26T11:23:45;6.80;99.90
15947;DHT22;8072;52.554;7.966;2024-02-26T11:26:13;6.80;99.90
15947;DHT22;8072;52.554;7.966;2024-02-26T11:28:40;6.80;99.90
15947;DHT22;8072;52.554;7.966;2024-02-26T11:31:07;6.80;99.90
15947;DHT22;8072;52.554;7.966;2024-02-26T11:33:34;6.90;99.90
15947;DHT22;8072;52.554;7.966;2024-02-26T11:36:13;7.00;99.90
15947;DHT22;8072;52.554;7.966;2024-02-26T11:38:39;7.00;99.90
15947;DHT22;8072;52.554;7.966;2024-02-26T11:41:06;7.10;99.90
15947;DHT22;8072;52.554;7.966;2024-02-26T11:43:58;7.00;99.90
15947;DHT22;8072;52.554;7.966;2024-02-26T11:46:30;7.00;99.90
15947;DHT22;8072;52.554;7.966;2024-02-26T11:49:01;7.10;99.90
15947;DHT22;8072;52.554;7.966;2024-02-26T11:51:34;7.10;99.90
15947;DHT22;8072;52.554;7.966;2024-02-26T11:54:00;7.20;99.90
15947;DHT22;8072;52.554;7.966;2024-02-26T11:56:26;7.20;99.90
15947;DHT22;8072;52.554;7.966;2024-02-26T12:01:41;7.20;99.90
15947;DHT22;8072;52.554;7.966;2024-02-26T12:04:15;7.30;99.90
15947;DHT22;8072;52.554;7.966;2024-02-26T12:06:47;7.30;99.90
15947;DHT22;8072;52.554;7.966;2024-02-26T12:09:30;7.40;99.90
15947;DHT22;8072;52.554;7.966;2024-02-26T12:12:01;7.40;99.90
15947;DHT22;8072;52.554;7.966;2024-02-26T12:14:27;7.50;99.90
15947;DHT22;8072;52.554;7.966;2024-02-26T12:16:55;7.50;99.90
15947;DHT22;8072;52.554;7.966;2024-02-26T12:19:21;7.60;99.90
15947;DHT22;8072;52.554;7.966;2024-02-26T12:21:51;7.60;99.90
15947;DHT22;8072;52.554;7.966;2024-02-26T12:24:19;7.70;99.90
15947;DHT22;8072;52.554;7.966;2024-02-26T12:26:45;7.70;99.90
15947;DHT22;8072;52.554;7.966;2024-02-26T12:29:11;7.70;99.90
15947;DHT22;8072;52.554;7.966;2024-02-26T12:31:37;7.70;99.90
15947;DHT22;8072;52.554;7.966;2024-02-26T12:34:06;7.70;99.90
15947;DHT22;8072;52.554;7.966;2024-02-26T12:36:34;7.70;99.90
15947;DHT22;8072;52.554;7.966;2024-02-26T12:39:02;7.70;99.90
15947;DHT22;8072;52.554;7.966;2024-02-26T12:41:27;7.70;99.90
15947;DHT22;8072;52.554;7.966;2024-02-26T12:43:55;7.70;99.90
15947;DHT22;8072;52.554;7.966;2024-02-26T12:46:22;7.70;99.90
15947;DHT22;8072;52.554;7.966;2024-02-26T12:48:48;7.70;99.90
15947;DHT22;8072;52.554;7.966;2024-02-26T12:51:16;7.70;99.90
15947;DHT22;8072;52.554;7.966;2024-02-26T12:53:43;7.70;99.90
15947;DHT22;8072;52.554;7.966;2024-02-26T12:56:10;7.70;99.90
15947;DHT22;8072;52.554;7.966;2024-02-26T12:58:37;7.70;99.90
15947;DHT22;8072;52.554;7.966;2024-02-26T13:01:04;7.70;99.90
15947;DHT22;8072;52.554;7.966;2024-02-26T13:03:32;7.80;99.90
15947;DHT22;8072;52.554;7.966;2024-02-26T13:06:00;7.70;99.90
15947;DHT22;8072;52.554;7.966;2024-02-26T13:08:26;7.70;99.90
15947;DHT22;8072;52.554;7.966;2024-02-26T13:10:52;7.80;99.90
15947;DHT22;8072;52.554;7.966;2024-02-26T13:13:19;7.80;99.90
15947;DHT22;8072;52.554;7.966;2024-02-26T13:15:45;7.80;99.90
15947;DHT22;8072;52.554;7.966;2024-02-26T13:18:13;7.80;99.90
15947;DHT22;8072;52.554;7.966;2024-02-26T13:20:39;7.80;99.90
15947;DHT22;8072;52.554;7.966;2024-02-26T13:23:11;7.70;99.90
15947;DHT22;8072;52.554;7.966;2024-02-26T13:25:37;7.70;99.90
15947;DHT22;8072;52.554;7.966;2024-02-26T13:28:19;7.70;99.90
15947;DHT22;8072;52.554;7.966;2024-02-26T13:33:26;7.80;99.90
15947;DHT22;8072;52.554;7.966;2024-02-26T13:35:53;7.80;99.90
15947;DHT22;8072;52.554;7.966;2024-02-26T13:38:19;7.80;99.90
15947;DHT22;8072;52.554;7.966;2024-02-26T13:40:45;7.70;99.90
15947;DHT22;8072;52.554;7.966;2024-02-26T13:43:10;7.70;99.90
15947;DHT22;8072;52.554;7.966;2024-02-26T13:45:37;7.70;99.90
15947;DHT22;8072;52.554;7.966;2024-02-26T13:48:08;7.80;99.90
15947;DHT22;8072;52.554;7.966;2024-02-26T13:50:35;7.80;99.90
15947;DHT22;8072;52.554;7.966;2024-02-26T13:53:02;7.70;99.90
15947;DHT22;8072;52.554;7.966;2024-02-26T13:55:28;7.70;99.90
15947;DHT22;8072;52.554;7.966;2024-02-26T13:57:59;7.70;99.90
15947;DHT22;8072;52.554;7.966;2024-02-26T14:00:29;7.80;99.90
15947;DHT22;8072;52.554;7.966;2024-02-26T14:02:58;7.80;99.90
15947;DHT22;8072;52.554;7.966;2024-02-26T14:05:24;7.70;99.90
15947;DHT22;8072;52.554;7.966;2024-02-26T14:07:49;7.80;99.90
15947;DHT22;8072;52.554;7.966;2024-02-26T14:10:15;7.80;99.90
15947;DHT22;8072;52.554;7.966;2024-02-26T14:12:41;7.70;99.90
15947;DHT22;8072;52.554;7.966;2024-02-26T14:15:08;7.70;99.90
15947;DHT22;8072;52.554;7.966;2024-02-26T14:17:35;7.70;99.90
15947;DHT22;8072;52.554;7.966;2024-02-26T14:20:01;7.80;99.90
15947;DHT22;8072;52.554;7.966;2024-02-26T14:22:27;7.70;99.90
15947;DHT22;8072;52.554;7.966;2024-02-26T14:24:53;7.70;99.90
15947;DHT22;8072;52.554;7.966;2024-02-26T14:27:19;7.70;99.90
15947;DHT22;8072;52.554;7.966;2024-02-26T14:29:48;7.70;99.90
15947;DHT22;8072;52.554;7.966;2024-02-26T14:32:14;7.80;99.90
15947;DHT22;8072;52.554;7.966;2024-02-26T14:34:40;7.80;99.90
15947;DHT22;8072;52.554;7.966;2024-02-26T14:37:06;7.90;99.90
15947;DHT22;8072;52.554;7.966;2024-02-26T14:39:32;7.90;99.90
15947;DHT22;8072;52.554;7.966;2024-02-26T14:41:59;7.80;99.90
15947;DHT22;8072;52.554;7.966;2024-02-26T14:44:25;7.80;99.90
15947;DHT22;8072;52.554;7.966;2024-02-26T14:46:51;7.70;99.90
15947;DHT22;8072;52.554;7.966;2024-02-26T14:49:17;7.70;99.90
15947;DHT22;8072;52.554;7.966;2024-02-26T14:51:43;7.70;99.90
15947;DHT22;8072;52.554;7.966;2024-02-26T14:54:13;7.70;99.90
15947;DHT22;8072;52.554;7.966;2024-02-26T14:56:39;7.60;99.90
15947;DHT22;8072;52.554;7.966;2024-02-26T14:59:05;7.60;99.90
15947;DHT22;8072;52.554;7.966;2024-02-26T15:01:31;7.60;99.90
15947;DHT22;8072;52.554;7.966;2024-02-26T15:04:03;7.50;99.90
15947;DHT22;8072;52.554;7.966;2024-02-26T15:06:29;7.50;99.90
15947;DHT22;8072;52.554;7.966;2024-02-26T15:08:55;7.50;99.90
15947;DHT22;8072;52.554;7.966;2024-02-26T15:11:21;7.40;99.90
15947;DHT22;8072;52.554;7.966;2024-02-26T15:13:47;7.40;99.90
15947;DHT22;8072;52.554;7.966;2024-02-26T15:16:19;7.40;99.90
15947;DHT22;8072;52.554;7.966;2024-02-26T15:18:46;7.50;99.90
15947;DHT22;8072;52.554;7.966;2024-02-26T15:21:12;7.50;99.90
15947;DHT22;8072;52.554;7.966;2024-02-26T15:23:39;7.50;99.90
15947;DHT22;8072;52.554;7.966;2024-02-26T15:26:05;7.40;99.90
15947;DHT22;8072;52.554;7.966;2024-02-26T15:28:30;7.40;99.90
15947;DHT22;8072;52.554;7.966;2024-02-26T15:30:56;7.40;99.90
15947;DHT22;8072;52.554;7.966;2024-02-26T15:33:23;7.30;99.90
15947;DHT22;8072;52.554;7.966;2024-02-26T15:35:50;7.30;99.90
15947;DHT22;8072;52.554;7.966;2024-02-26T15:38:16;7.30;99.90
15947;DHT22;8072;52.554;7.966;2024-02-26T15:40:42;7.30;99.90
15947;DHT22;8072;52.554;7.966;2024-02-26T15:43:09;7.30;99.90
15947;DHT22;8072;52.554;7.966;2024-02-26T15:45:35;7.20;99.90
15947;DHT22;8072;52.554;7.966;2024-02-26T15:48:01;7.20;99.90
15947;DHT22;8072;52.554;7.966;2024-02-26T15:50:27;7.20;99.90
15947;DHT22;8072;52.554;7.966;2024-02-26T15:52:52;7.10;99.90
15947;DHT22;8072;52.554;7.966;2024-02-26T15:55:19;7.10;99.90
15947;DHT22;8072;52.554;7.966;2024-02-26T15:57:46;7.10;99.90
15947;DHT22;8072;52.554;7.966;2024-02-26T16:00:12;7.10;99.90
15947;DHT22;8072;52.554;7.966;2024-02-26T16:02:38;7.00;99.90
15947;DHT22;8072;52.554;7.966;2024-02-26T16:05:05;7.00;99.90